Terminal Aerodrome Forecast
Issued by NWS

Home | Current Version | Previous Version | Text Only | Print | Product List | Glossary On
Versions: 1 2 3 4 5 6 7 8 9 10 11 12 13 14 15 16 17 18 19 20 21 22
000
FTUS43 KDTX 271424 AAA
TAFDET
TAF AMD
KDET 271424Z 2714/2812 33013G20KT 6SM -SN SCT030 OVC045
      TEMPO 2715/2719 3SM -SN BKN025
     FM271900 03010KT 6SM -SHSN OVC035
     FM280200 34006KT P6SM OVC025=

USA.gov is the U.S. government's official web portal to all federal, state and local government web resources and services.